Time;durP1;ratioP1;P1;durP2;ratioP2;P2;SDS_P1;SDS_P2;PMS_P1;PMS_P2;Temp;Humidity;BMP_temperature;BMP_pressure;BME280_temperature;BME280_humidity;BME280_pressure;Samples;Min_cycle;Max_cycle;Signal;HPM_P1;HPM_P2
2024/01/30 00:02:07;;;;;;;;;;;;;;;21.26;33.83;102566.38;5053386;28;19920;-53
2024/01/30 00:04:32;;;;;;;;;;;;;;;21.24;34.05;102576.50;5052199;28;19921;-54
2024/01/30 00:06:57;;;;;;;;;;;;;;;21.21;33.93;102569.50;5056644;28;20439;-54
2024/01/30 00:09:23;;;;;;;;;;;;;;;21.20;33.85;102570.53;5052965;28;19947;-51
2024/01/30 00:11:48;;;;;;;;;;;;;;;21.19;33.88;102567.94;5053348;28;19935;-49
2024/01/30 00:14:13;;;;;;;;;;;;;;;21.18;34.01;102569.78;5052402;28;19924;-46
2024/01/30 00:16:39;;;;;;;;;;;;;;;21.16;34.06;102565.53;5054872;28;20514;-51
2024/01/30 00:19:04;;;;;;;;;;;;;;;21.17;33.82;102564.53;5055529;28;19960;-55
2024/01/30 00:21:29;;;;;;;;;;;;;;;21.15;34.06;102578.22;5056665;28;19917;-52
2024/01/30 00:23:54;;;;;;;;;;;;;;;21.15;34.06;102580.03;5056150;28;19917;-51
2024/01/30 00:26:20;;;;;;;;;;;;;;;21.13;34.06;102582.03;5052536;28;19920;-51
2024/01/30 00:28:45;;;;;;;;;;;;;;;21.11;34.02;102581.31;5050807;28;19921;-54
2024/01/30 00:31:12;;;;;;;;;;;;;;;21.12;34.26;102585.75;5053914;28;19913;-54
2024/01/30 00:33:37;;;;;;;;;;;;;;;21.10;33.92;102579.63;5054605;28;19916;-51
2024/01/30 00:36:03;;;;;;;;;;;;;;;21.08;33.80;102587.88;5051754;28;20407;-53
2024/01/30 00:38:28;;;;;;;;;;;;;;;21.07;33.84;102586.19;5056555;28;19921;-51
2024/01/30 00:40:53;;;;;;;;;;;;;;;21.04;34.13;102583.75;5056585;28;19913;-54
2024/01/30 00:43:18;;;;;;;;;;;;;;;21.03;34.08;102576.66;5051138;28;19980;-54
2024/01/30 00:45:44;;;;;;;;;;;;;;;21.01;34.11;102573.22;5055705;28;19917;-52
2024/01/30 00:48:09;;;;;;;;;;;;;;;20.98;34.02;102570.78;5055419;28;19917;-53
2024/01/30 00:50:34;;;;;;;;;;;;;;;20.97;34.22;102571.78;5051509;28;19951;-51
2024/01/30 00:52:59;;;;;;;;;;;;;;;20.95;34.16;102574.66;5053658;28;19979;-55
2024/01/30 00:55:24;;;;;;;;;;;;;;;20.94;33.92;102572.94;5054277;28;19917;-55
2024/01/30 00:57:50;;;;;;;;;;;;;;;20.93;34.18;102579.31;5064457;28;19931;-53
2024/01/30 01:00:16;;;;;;;;;;;;;;;20.91;34.11;102575.06;5069202;28;19923;-51
2024/01/30 01:02:42;;;;;;;;;;;;;;;20.89;34.35;102572.50;5071415;28;19943;-51
2024/01/30 01:05:08;;;;;;;;;;;;;;;20.88;34.13;102570.78;5073806;28;19917;-55
2024/01/30 01:07:33;;;;;;;;;;;;;;;20.86;34.05;102572.78;5074395;28;19912;-55
2024/01/30 01:09:58;;;;;;;;;;;;;;;20.85;34.21;102571.06;5074996;28;19959;-54
2024/01/30 01:12:23;;;;;;;;;;;;;;;20.84;34.40;102573.91;5073754;28;19912;-55
2024/01/30 01:14:49;;;;;;;;;;;;;;;20.82;34.10;102568.66;5070668;28;19913;-54
2024/01/30 01:17:14;;;;;;;;;;;;;;;20.82;34.23;102563.25;5074950;28;19921;-54
2024/01/30 01:19:39;;;;;;;;;;;;;;;20.81;34.19;102568.78;5072308;28;19916;-52
2024/01/30 01:22:04;;;;;;;;;;;;;;;20.79;34.23;102562.69;5073123;28;19913;-51
2024/01/30 01:24:31;;;;;;;;;;;;;;;20.79;34.22;102557.28;5069419;28;19917;-55
2024/01/30 01:26:57;;;;;;;;;;;;;;;20.76;34.38;102558.41;5071797;28;19917;-52
2024/01/30 01:29:28;;;;;;;;;;;;;;;20.74;34.55;102559.56;5074067;28;19920;-51
2024/01/30 01:31:53;;;;;;;;;;;;;;;20.73;34.18;102556.00;5071860;28;19908;-49
2024/01/30 01:34:18;;;;;;;;;;;;;;;20.71;34.36;102555.28;5064456;28;19979;-54
2024/01/30 01:36:43;;;;;;;;;;;;;;;20.70;34.50;102550.88;5073081;28;19971;-54
2024/01/30 01:39:09;;;;;;;;;;;;;;;20.69;34.51;102559.97;5071592;28;20378;-49
2024/01/30 01:41:34;;;;;;;;;;;;;;;20.68;34.28;102558.25;5071627;28;19913;-53
2024/01/30 01:43:59;;;;;;;;;;;;;;;20.66;34.39;102554.84;5070158;28;19920;-52
2024/01/30 01:46:26;;;;;;;;;;;;;;;20.64;34.23;102554.13;5074565;28;20748;-52
2024/01/30 01:48:51;;;;;;;;;;;;;;;20.63;34.22;102555.97;5072296;28;19912;-54
2024/01/30 01:51:16;;;;;;;;;;;;;;;20.63;34.22;102557.81;5072043;28;19956;-50
2024/01/30 01:53:41;;;;;;;;;;;;;;;20.61;34.49;102549.88;5071155;28;19916;-52
2024/01/30 01:56:07;;;;;;;;;;;;;;;20.60;34.55;102548.16;5066648;28;19962;-50
2024/01/30 01:58:32;;;;;;;;;;;;;;;20.58;34.37;102547.44;5036818;28;20002;-53
2024/01/30 02:00:57;;;;;;;;;;;;;;;20.57;34.68;102544.88;5054170;28;19962;-54
2024/01/30 02:03:23;;;;;;;;;;;;;;;20.56;34.40;102551.25;5036160;28;19959;-54
2024/01/30 02:05:48;;;;;;;;;;;;;;;20.54;34.61;102545.16;5050355;28;19913;-52
2024/01/30 02:08:13;;;;;;;;;;;;;;;20.53;34.64;102549.72;5037057;28;19913;-51
2024/01/30 02:10:38;;;;;;;;;;;;;;;20.51;34.39;102540.88;5050127;28;19913;-51
2024/01/30 02:13:04;;;;;;;;;;;;;;;20.51;34.63;102537.31;5050583;28;19914;-51
2024/01/30 02:15:29;;;;;;;;;;;;;;;20.49;34.54;102534.75;5048260;28;19921;-50
2024/01/30 02:17:54;;;;;;;;;;;;;;;20.47;34.67;102518.66;5052449;28;19924;-50
2024/01/30 02:20:20;;;;;;;;;;;;;;;20.47;34.53;102528.59;5049695;28;19917;-54
2024/01/30 02:22:45;;;;;;;;;;;;;;;20.45;34.36;102520.63;5034596;28;19928;-52
2024/01/30 02:25:10;;;;;;;;;;;;;;;20.43;34.64;102517.25;5034045;28;19920;-50
2024/01/30 02:27:35;;;;;;;;;;;;;;;20.43;34.50;102522.66;5051866;28;20347;-51
2024/01/30 02:30:00;;;;;;;;;;;;;;;20.41;34.67;102524.63;5051876;28;19916;-49
2024/01/30 02:32:26;;;;;;;;;;;;;;;20.41;34.50;102516.50;5052849;28;19917;-51
2024/01/30 02:34:51;;;;;;;;;;;;;;;20.40;34.73;102522.06;5050854;28;19913;-50
2024/01/30 02:37:16;;;;;;;;;;;;;;;20.39;34.53;102513.13;5050724;28;19924;-49
2024/01/30 02:39:41;;;;;;;;;;;;;;;20.37;34.65;102528.59;5019115;28;19928;-51
2024/01/30 02:42:06;;;;;;;;;;;;;;;20.37;34.50;102522.34;5049238;28;19939;-50
2024/01/30 02:44:32;;;;;;;;;;;;;;;20.33;34.61;102513.66;5048999;28;19951;-49
2024/01/30 02:46:57;;;;;;;;;;;;;;;20.33;34.63;102508.25;5052989;28;19987;-54
2024/01/30 02:49:22;;;;;;;;;;;;;;;20.32;34.54;102508.41;5052406;28;19956;-52
2024/01/30 02:51:47;;;;;;;;;;;;;;;20.30;34.79;102508.50;5052213;28;19913;-48
2024/01/30 02:54:12;;;;;;;;;;;;;;;20.29;34.72;102506.81;5050199;28;19952;-50
2024/01/30 02:56:38;;;;;;;;;;;;;;;20.29;34.65;102516.78;5049495;28;19925;-51
2024/01/30 02:59:03;;;;;;;;;;;;;;;20.28;34.86;102512.38;5055016;28;20427;-52
2024/01/30 03:01:28;;;;;;;;;;;;;;;20.26;34.79;102512.50;5049793;28;19913;-50
2024/01/30 03:03:53;;;;;;;;;;;;;;;20.26;34.64;102500.84;5047675;28;19917;-53
2024/01/30 03:06:20;;;;;;;;;;;;;;;20.24;34.61;102498.28;5045757;28;19923;-54
2024/01/30 03:08:45;;;;;;;;;;;;;;;20.23;34.52;102493.88;5047118;28;19913;-53
2024/01/30 03:11:10;;;;;;;;;;;;;;;20.21;34.63;102503.94;5049131;28;19920;-45
2024/01/30 03:13:35;;;;;;;;;;;;;;;20.19;34.72;102501.41;5053676;28;19913;-50
2024/01/30 03:16:00;;;;;;;;;;;;;;;20.20;34.89;102494.16;5056421;28;19917;-51
2024/01/30 03:18:26;;;;;;;;;;;;;;;20.19;34.66;102492.44;5055280;28;19920;-52
2024/01/30 03:20:51;;;;;;;;;;;;;;;20.17;34.89;102489.88;5055696;28;19916;-54
2024/01/30 03:23:16;;;;;;;;;;;;;;;20.15;34.66;102478.38;5052345;28;20506;-52
2024/01/30 03:25:41;;;;;;;;;;;;;;;20.14;34.58;102479.38;5054802;28;19916;-55
2024/01/30 03:28:06;;;;;;;;;;;;;;;20.13;34.95;102480.34;5055978;28;19935;-46
2024/01/30 03:30:32;;;;;;;;;;;;;;;20.12;35.00;102488.59;5055518;28;19917;-53
2024/01/30 03:32:57;;;;;;;;;;;;;;;20.11;34.91;102495.84;5052583;28;19928;-53
2024/01/30 03:35:22;;;;;;;;;;;;;;;20.10;34.65;102486.03;5057375;28;19919;-54
2024/01/30 03:37:47;;;;;;;;;;;;;;;20.10;34.68;102487.88;5057044;28;20015;-49
2024/01/30 03:40:13;;;;;;;;;;;;;;;20.08;34.74;102474.50;5058261;28;19917;-52
2024/01/30 03:42:38;;;;;;;;;;;;;;;20.06;34.66;102476.50;5055327;28;20373;-54
2024/01/30 03:45:03;;;;;;;;;;;;;;;20.05;34.67;102473.91;5055312;28;19917;-54
2024/01/30 03:47:28;;;;;;;;;;;;;;;20.03;34.76;102476.78;5052861;28;19936;-51
2024/01/30 03:49:53;;;;;;;;;;;;;;;20.02;34.83;102471.53;5053778;28;19917;-53
2024/01/30 03:52:19;;;;;;;;;;;;;;;20.02;34.84;102472.38;5052777;28;19943;-55
2024/01/30 03:54:44;;;;;;;;;;;;;;;20.00;35.03;102458.13;5056389;28;19920;-54
2024/01/30 03:57:09;;;;;;;;;;;;;;;19.98;34.74;102471.78;5065066;28;19992;-54
2024/01/30 03:59:34;;;;;;;;;;;;;;;19.97;35.01;102461.13;5075045;28;19913;-55
2024/01/30 04:01:59;;;;;;;;;;;;;;;19.95;35.09;102460.41;5072431;28;19916;-48
2024/01/30 04:04:25;;;;;;;;;;;;;;;19.96;35.07;102448.59;5078643;28;19948;-52
2024/01/30 04:06:50;;;;;;;;;;;;;;;19.94;34.88;102446.06;5074839;28;19916;-53
2024/01/30 04:09:15;;;;;;;;;;;;;;;19.93;34.88;102443.50;5072402;28;19916;-52
2024/01/30 04:11:41;;;;;;;;;;;;;;;19.92;35.12;102442.66;5075087;28;19943;-52
2024/01/30 04:14:06;;;;;;;;;;;;;;;19.92;34.84;102444.47;5073965;28;19916;-51
2024/01/30 04:16:32;;;;;;;;;;;;;;;19.91;34.91;102446.31;5070401;28;20458;-52
2024/01/30 04:18:57;;;;;;;;;;;;;;;19.89;34.80;102442.91;5070115;28;19938;-53
2024/01/30 04:21:22;;;;;;;;;;;;;;;19.90;35.11;102449.16;5072689;28;19913;-53
2024/01/30 04:23:48;;;;;;;;;;;;;;;19.89;34.98;102447.47;5073017;28;20448;-53
2024/01/30 04:26:13;;;;;;;;;;;;;;;19.88;34.86;102446.63;5059502;28;19988;-54
2024/01/30 04:28:38;;;;;;;;;;;;;;;19.89;35.13;102439.38;5074836;28;19917;-54
2024/01/30 04:31:04;;;;;;;;;;;;;;;19.89;34.73;102447.47;5064498;28;20413;-53
2024/01/30 04:33:29;;;;;;;;;;;;;;;19.88;34.87;102448.44;5074097;28;19939;-52
2024/01/30 04:35:54;;;;;;;;;;;;;;;19.89;35.00;102447.47;5075525;28;19916;-54
2024/01/30 04:38:19;;;;;;;;;;;;;;;19.88;34.95;102432.25;5055053;28;19925;-54
2024/01/30 04:40:44;;;;;;;;;;;;;;;19.88;34.88;102430.44;5073233;28;19912;-52
2024/01/30 04:43:09;;;;;;;;;;;;;;;19.88;34.82;102435.81;5073194;28;19959;-54
2024/01/30 04:45:35;;;;;;;;;;;;;;;19.89;34.85;102442.91;5071915;28;19948;-53
2024/01/30 04:48:00;;;;;;;;;;;;;;;19.89;35.04;102440.22;5072543;28;19913;-50
2024/01/30 04:50:26;;;;;;;;;;;;;;;19.91;34.89;102442.78;5067913;28;19921;-51
2024/01/30 04:52:51;;;;;;;;;;;;;;;19.91;35.15;102446.31;5070162;28;19917;-54
2024/01/30 04:55:16;;;;;;;;;;;;;;;19.92;34.97;102445.34;5075407;28;19994;-54
2024/01/30 04:57:42;;;;;;;;;;;;;;;19.93;34.87;102447.06;5061109;28;19925;-52
2024/01/30 05:00:07;;;;;;;;;;;;;;;19.96;34.81;102445.91;5052415;28;20291;-55
2024/01/30 05:02:32;;;;;;;;;;;;;;;19.97;34.98;102445.78;5053319;28;19917;-51
2024/01/30 05:04:58;;;;;;;;;;;;;;;19.98;34.85;102439.38;5052120;28;19914;-53
2024/01/30 05:07:24;;;;;;;;;;;;;;;20.02;34.93;102437.28;5052807;28;19921;-54
2024/01/30 05:09:49;;;;;;;;;;;;;;;20.05;34.80;102438.81;5052206;28;19917;-54
2024/01/30 05:12:14;;;;;;;;;;;;;;;20.07;34.92;102436.84;5050982;28;19920;-54
2024/01/30 05:14:39;;;;;;;;;;;;;;;20.09;34.62;102432.16;5047856;28;19932;-52
2024/01/30 05:17:05;;;;;;;;;;;;;;;20.10;34.74;102429.31;5044564;28;19925;-50
2024/01/30 05:19:30;;;;;;;;;;;;;;;20.13;34.64;102426.31;5037286;28;19919;-51
2024/01/30 05:21:55;;;;;;;;;;;;;;;20.15;34.91;102426.22;5052791;28;19916;-52
2024/01/30 05:24:20;;;;;;;;;;;;;;;20.18;34.86;102421.38;5054447;28;19913;-53
2024/01/30 05:26:47;;;;;;;;;;;;;;;20.20;34.75;102427.47;5053999;28;19920;-52
2024/01/30 05:29:12;;;;;;;;;;;;;;;20.23;34.58;102432.63;5050714;28;19924;-52
2024/01/30 05:31:37;;;;;;;;;;;;;;;20.24;34.62;102430.75;5031431;28;19913;-55
2024/01/30 05:34:02;;;;;;;;;;;;;;;20.25;34.87;102431.63;5049584;28;19941;-55
2024/01/30 05:36:27;;;;;;;;;;;;;;;20.28;34.98;102425.94;5052612;28;19917;-55
2024/01/30 05:38:53;;;;;;;;;;;;;;;20.30;35.05;102432.03;5052783;28;19913;-51
2024/01/30 05:41:18;;;;;;;;;;;;;;;20.33;35.09;102426.38;5051597;28;19924;-55
2024/01/30 05:43:43;;;;;;;;;;;;;;;20.36;35.16;102428.78;5052033;28;19920;-55
2024/01/30 05:46:08;;;;;;;;;;;;;;;20.39;34.96;102437.47;5052893;28;19917;-52
2024/01/30 05:48:35;;;;;;;;;;;;;;;20.42;34.92;102442.56;5052059;28;19968;-48
2024/01/30 05:51:00;;;;;;;;;;;;;;;20.44;35.17;102443.28;5052000;28;19921;-53
2024/01/30 05:53:25;;;;;;;;;;;;;;;20.49;35.03;102431.25;5053420;28;19978;-53
2024/01/30 05:55:50;;;;;;;;;;;;;;;20.51;35.03;102431.94;5049721;28;19944;-54
2024/01/30 05:58:16;;;;;;;;;;;;;;;20.54;35.11;102426.25;5054781;28;19968;-53
2024/01/30 06:00:41;;;;;;;;;;;;;;;20.56;35.04;102425.13;5049427;28;19913;-55
2024/01/30 06:03:07;;;;;;;;;;;;;;;20.60;34.93;102431.97;5053043;28;19917;-53
2024/01/30 06:05:32;;;;;;;;;;;;;;;20.64;34.96;102424.38;5050737;28;19994;-54
2024/01/30 06:07:57;;;;;;;;;;;;;;;20.66;35.34;102425.13;5049761;28;20000;-51
2024/01/30 06:10:22;;;;;;;;;;;;;;;20.70;34.95;102429.25;5049023;28;19913;-55
2024/01/30 06:12:48;;;;;;;;;;;;;;;20.72;34.82;102411.88;5051992;28;19913;-55
2024/01/30 06:15:13;;;;;;;;;;;;;;;20.76;34.84;102411.59;5051344;28;19913;-52
2024/01/30 06:17:39;;;;;;;;;;;;;;;20.78;34.86;102406.91;5051906;28;19928;-53
2024/01/30 06:20:04;;;;;;;;;;;;;;;20.81;34.81;102423.66;5053779;28;19917;-56
2024/01/30 06:22:29;;;;;;;;;;;;;;;20.85;35.06;102408.00;5050738;28;19924;-55
2024/01/30 06:24:55;;;;;;;;;;;;;;;20.87;35.01;102406.88;5047698;28;19913;-52
2024/01/30 06:27:20;;;;;;;;;;;;;;;20.89;34.94;102410.28;5048675;28;19940;-55
2024/01/30 06:29:45;;;;;;;;;;;;;;;20.93;34.65;102418.94;5048412;28;19917;-55
2024/01/30 06:32:10;;;;;;;;;;;;;;;20.95;35.01;102414.28;5051193;28;19917;-54
2024/01/30 06:34:36;;;;;;;;;;;;;;;20.98;34.91;102422.06;5052359;28;19913;-56
2024/01/30 06:37:01;;;;;;;;;;;;;;;21.02;34.62;102428.03;5035652;28;19980;-52
2024/01/30 06:39:26;;;;;;;;;;;;;;;21.05;34.97;102430.47;5050691;28;19917;-55
2024/01/30 06:41:51;;;;;;;;;;;;;;;21.07;34.59;102423.03;5041700;28;19923;-45
2024/01/30 06:44:16;;;;;;;;;;;;;;;21.10;34.72;102420.91;5040967;28;19924;-55
2024/01/30 06:46:42;;;;;;;;;;;;;;;21.12;34.77;102413.50;5049936;28;20392;-56
2024/01/30 06:49:07;;;;;;;;;;;;;;;21.17;34.42;102419.31;5049497;28;19913;-52
2024/01/30 06:51:32;;;;;;;;;;;;;;;21.20;34.38;102412.78;5033076;28;19917;-56
2024/01/30 06:53:57;;;;;;;;;;;;;;;21.23;34.45;102426.84;5048790;28;19920;-52
2024/01/30 06:56:23;;;;;;;;;;;;;;;21.25;34.39;102424.00;5054631;28;19932;-56
2024/01/30 06:58:50;;;;;;;;;;;;;;;21.27;34.65;102430.09;5065809;28;20424;-56
2024/01/30 07:01:15;;;;;;;;;;;;;;;21.29;34.54;102422.72;5068646;28;19967;-54
2024/01/30 07:03:41;;;;;;;;;;;;;;;21.30;34.59;102424.41;5072039;28;19918;-50
2024/01/30 07:06:06;;;;;;;;;;;;;;;21.33;34.45;102434.97;5068677;28;19921;-50
2024/01/30 07:08:31;;;;;;;;;;;;;;;21.36;34.28;102417.56;5069146;28;20279;-55
2024/01/30 07:10:56;;;;;;;;;;;;;;;21.38;34.22;102418.28;5068424;28;19924;-51
2024/01/30 07:13:22;;;;;;;;;;;;;;;21.40;34.30;102424.41;5071137;28;19955;-53
2024/01/30 07:15:47;;;;;;;;;;;;;;;21.40;34.23;102416.28;5069715;28;19984;-55
2024/01/30 07:18:13;;;;;;;;;;;;;;;21.41;34.16;102416.16;5066131;28;19951;-52
2024/01/30 07:20:42;;;;;;;;;;;;;;;21.44;34.15;102420.38;5067861;28;20376;-53
2024/01/30 07:23:07;;;;;;;;;;;;;;;21.47;34.38;102422.81;5066696;28;19912;-51
2024/01/30 07:25:36;;;;;;;;;;;;;;;21.49;34.27;102428.91;5072595;28;19920;-53
2024/01/30 07:28:01;;;;;;;;;;;;;;;21.49;34.00;102422.66;5069502;28;19913;-54
2024/01/30 07:30:26;;;;;;;;;;;;;;;21.52;34.25;102430.47;5072524;28;19916;-54
2024/01/30 07:32:52;;;;;;;;;;;;;;;21.54;33.85;102432.03;5054073;28;19920;-54
2024/01/30 07:35:17;;;;;;;;;;;;;;;21.56;34.15;102415.66;5066401;28;19921;-56
2024/01/30 07:37:42;;;;;;;;;;;;;;;21.55;33.82;102430.19;5064864;28;19923;-53
2024/01/30 07:40:07;;;;;;;;;;;;;;;21.55;33.86;102441.88;5067357;28;19944;-55
2024/01/30 07:42:33;;;;;;;;;;;;;;;21.55;33.93;102431.03;5052149;28;19916;-55
2024/01/30 07:44:58;;;;;;;;;;;;;;;21.58;33.89;102438.00;5065502;28;19917;-53
2024/01/30 07:47:23;;;;;;;;;;;;;;;21.57;34.05;102433.59;5067897;28;19913;-53
2024/01/30 07:49:49;;;;;;;;;;;;;;;21.58;33.91;102429.88;5068009;28;19917;-51
2024/01/30 07:52:14;;;;;;;;;;;;;;;21.58;33.79;102443.41;5069563;28;20521;-52
2024/01/30 07:54:42;;;;;;;;;;;;;;;21.58;33.72;102452.41;5071008;28;19921;-53
2024/01/30 07:57:08;;;;;;;;;;;;;;;21.60;33.80;102457.66;5067284;28;20418;-54
2024/01/30 07:59:33;;;;;;;;;;;;;;;21.60;33.80;102452.25;5066868;28;19928;-52
2024/01/30 08:02:03;;;;;;;;;;;;;;;21.57;33.91;102461.50;5070850;28;20291;-53
2024/01/30 08:04:29;;;;;;;;;;;;;;;21.58;33.74;102448.81;5070983;28;19913;-53
2024/01/30 08:06:54;;;;;;;;;;;;;;;21.59;33.88;102455.97;5054350;28;19939;-54
2024/01/30 08:09:19;;;;;;;;;;;;;;;21.60;33.63;102461.22;5070702;28;19923;-55
2024/01/30 08:11:44;;;;;;;;;;;;;;;21.61;33.87;102464.75;5069106;28;20004;-53
2024/01/30 08:14:09;;;;;;;;;;;;;;;21.59;33.82;102462.22;5070606;28;20453;-54
2024/01/30 08:16:34;;;;;;;;;;;;;;;21.60;33.71;102469.31;5073239;28;19923;-49
2024/01/30 08:19:01;;;;;;;;;;;;;;;21.61;33.69;102471.03;5071685;28;19921;-52
2024/01/30 08:21:26;;;;;;;;;;;;;;;21.60;33.76;102457.66;5069331;28;19963;-55
2024/01/30 08:23:52;;;;;;;;;;;;;;;21.62;33.82;102469.16;5070289;28;19970;-53
2024/01/30 08:26:17;;;;;;;;;;;;;;;21.62;33.99;102458.34;5071473;28;19943;-50
2024/01/30 08:28:42;;;;;;;;;;;;;;;21.63;33.78;102466.34;5070625;28;19940;-47
2024/01/30 08:31:07;;;;;;;;;;;;;;;21.61;33.96;102459.34;5070302;28;19913;-53
2024/01/30 08:33:32;;;;;;;;;;;;;;;21.62;34.08;102464.63;5047864;28;19917;-52
2024/01/30 08:35:57;;;;;;;;;;;;;;;21.61;34.00;102464.75;5069320;28;19913;-53
2024/01/30 08:38:23;;;;;;;;;;;;;;;21.60;34.06;102474.75;5072536;28;19921;-52
2024/01/30 08:40:48;;;;;;;;;;;;;;;21.61;33.92;102481.00;5075215;28;19959;-54
2024/01/30 08:43:13;;;;;;;;;;;;;;;21.60;34.06;102477.44;5071451;28;19954;-51
2024/01/30 08:45:38;;;;;;;;;;;;;;;21.60;33.75;102480.16;5071361;28;19916;-54
2024/01/30 08:48:04;;;;;;;;;;;;;;;21.61;34.03;102481.00;5070621;28;19913;-53
2024/01/30 08:50:29;;;;;;;;;;;;;;;21.60;33.76;102474.75;5071535;28;19912;-54
2024/01/30 08:52:54;;;;;;;;;;;;;;;21.59;34.20;102475.75;5053854;28;20018;-49
2024/01/30 08:55:20;;;;;;;;;;;;;;;21.57;33.79;102474.19;5069210;28;19927;-54
2024/01/30 08:57:45;;;;;;;;;;;;;;;21.57;33.86;102475.03;5056639;28;19929;-51
2024/01/30 09:00:11;;;;;;;;;;;;;;;21.58;33.84;102475.88;5053229;28;19916;-50
2024/01/30 09:02:36;;;;;;;;;;;;;;;21.57;34.16;102477.72;5051706;28;19917;-51
2024/01/30 09:05:01;;;;;;;;;;;;;;;21.59;34.01;102478.47;5048643;28;19919;-52
2024/01/30 09:07:26;;;;;;;;;;;;;;;21.59;33.96;102483.88;5050431;28;20305;-50
2024/01/30 09:09:52;;;;;;;;;;;;;;;21.59;34.16;102474.91;5051111;28;19913;-54
2024/01/30 09:12:17;;;;;;;;;;;;;;;21.59;34.12;102480.31;5055242;28;19923;-51
2024/01/30 09:14:42;;;;;;;;;;;;;;;21.58;34.17;102478.59;5049389;28;20842;-53
2024/01/30 09:17:08;;;;;;;;;;;;;;;21.59;34.14;102481.16;5049212;28;19917;-52
2024/01/30 09:19:33;;;;;;;;;;;;;;;21.58;34.22;102484.00;5052332;28;19940;-51
2024/01/30 09:21:58;;;;;;;;;;;;;;;21.58;33.89;102484.00;5044709;28;19917;-52
2024/01/30 09:24:23;;;;;;;;;;;;;;;21.59;34.31;102480.31;5046648;28;19917;-54
2024/01/30 09:26:49;;;;;;;;;;;;;;;21.60;34.02;102482.00;5050709;28;19917;-54
2024/01/30 09:29:14;;;;;;;;;;;;;;;21.61;34.28;102483.72;5051649;28;19916;-54
2024/01/30 09:31:39;;;;;;;;;;;;;;;21.60;34.06;102485.56;5050327;28;19956;-49
2024/01/30 09:34:04;;;;;;;;;;;;;;;21.60;34.21;102485.56;5051439;28;19913;-52
2024/01/30 09:36:30;;;;;;;;;;;;;;;21.61;34.06;102489.13;5053059;28;19964;-51
2024/01/30 09:38:55;;;;;;;;;;;;;;;21.59;34.22;102486.56;5047890;28;20327;-49
2024/01/30 09:41:20;;;;;;;;;;;;;;;21.60;34.09;102485.56;5051698;28;19992;-53
2024/01/30 09:43:48;;;;;;;;;;;;;;;21.60;34.02;102479.31;5032545;28;19982;-51
2024/01/30 09:46:13;;;;;;;;;;;;;;;21.60;34.04;102485.56;5045124;28;19929;-54
2024/01/30 09:48:39;;;;;;;;;;;;;;;21.59;34.27;102486.56;5031800;28;19919;-49
2024/01/30 09:51:04;;;;;;;;;;;;;;;21.60;34.40;102480.16;5034328;28;19939;-45
2024/01/30 09:53:29;;;;;;;;;;;;;;;21.60;34.13;102479.31;5052311;28;19920;-50
2024/01/30 09:55:55;;;;;;;;;;;;;;;21.62;34.24;102482.69;5050428;28;19917;-55
2024/01/30 09:58:20;;;;;;;;;;;;;;;21.61;34.18;102484.56;5054943;28;19929;-53
2024/01/30 10:00:45;;;;;;;;;;;;;;;21.61;34.14;102481.84;5048591;28;19916;-54
2024/01/30 10:03:10;;;;;;;;;;;;;;;21.61;34.52;102489.13;5049711;28;19923;-51
2024/01/30 10:05:37;;;;;;;;;;;;;;;21.61;34.32;102492.69;5047662;28;19996;-55
2024/01/30 10:08:05;;;;;;;;;;;;;;;21.61;34.28;102484.56;5047800;28;19917;-53
2024/01/30 10:10:30;;;;;;;;;;;;;;;21.61;34.50;102489.97;5052898;28;19921;-52
2024/01/30 10:12:55;;;;;;;;;;;;;;;21.61;34.56;102491.84;5050765;28;19924;-48
2024/01/30 10:15:21;;;;;;;;;;;;;;;21.62;34.57;102497.13;5045824;28;19917;-51
2024/01/30 10:17:46;;;;;;;;;;;;;;;21.64;34.54;102499.66;5048370;28;19921;-50
2024/01/30 10:20:11;;;;;;;;;;;;;;;21.64;34.57;102494.25;5048405;28;19924;-51
2024/01/30 10:22:36;;;;;;;;;;;;;;;21.66;34.65;102498.53;5057389;28;19938;-49
2024/01/30 10:25:02;;;;;;;;;;;;;;;21.67;34.56;102496.66;5048677;28;19913;-55
2024/01/30 10:27:29;;;;;;;;;;;;;;;21.68;34.59;102501.06;5049075;28;19917;-52
2024/01/30 10:29:54;;;;;;;;;;;;;;;21.68;34.49;102493.81;5047960;28;19935;-47
2024/01/30 10:32:19;;;;;;;;;;;;;;;21.69;34.31;102505.47;5031762;28;19921;-54
2024/01/30 10:34:44;;;;;;;;;;;;;;;21.70;34.37;102496.34;5048463;28;19940;-53
2024/01/30 10:37:12;;;;;;;;;;;;;;;21.73;34.40;102506.88;5049327;28;20001;-56
2024/01/30 10:39:38;;;;;;;;;;;;;;;21.74;34.23;102499.63;5050710;28;19924;-52
2024/01/30 10:42:04;;;;;;;;;;;;;;;21.75;34.25;102501.31;5046841;28;19976;-54
2024/01/30 10:44:30;;;;;;;;;;;;;;;21.75;34.50;102510.31;5049154;28;19917;-53
2024/01/30 10:46:56;;;;;;;;;;;;;;;21.77;34.43;102494.75;5034991;28;20012;-53
2024/01/30 10:49:22;;;;;;;;;;;;;;;21.80;34.41;102499.03;5026106;28;19917;-54
2024/01/30 10:51:47;;;;;;;;;;;;;;;21.80;34.34;102504.47;5029351;28;19923;-51
2024/01/30 10:54:12;;;;;;;;;;;;;;;21.80;34.18;102496.34;5030702;28;19924;-50
2024/01/30 10:56:37;;;;;;;;;;;;;;;21.69;34.46;102481.13;5049561;28;19928;-55
2024/01/30 10:59:03;;;;;;;;;;;;;;;21.83;34.16;102507.69;5029971;28;19997;-51
2024/01/30 11:01:29;;;;;;;;;;;;;;;21.85;34.11;102500.28;5051214;28;20435;-54
2024/01/30 11:03:54;;;;;;;;;;;;;;;21.88;34.13;102505.41;5030173;28;19912;-51
2024/01/30 11:06:22;;;;;;;;;;;;;;;21.92;34.19;102505.97;5032459;28;19917;-56
2024/01/30 11:09:00;;;;;;;;;;;;;;;21.94;34.06;102501.25;5048930;28;19947;-49
2024/01/30 11:11:25;;;;;;;;;;;;;;;21.95;34.20;102500.22;5049886;28;19944;-55
2024/01/30 11:13:50;;;;;;;;;;;;;;;21.99;34.17;102507.06;5051606;28;19921;-54
2024/01/30 11:16:15;;;;;;;;;;;;;;;22.01;34.13;102529.44;5047837;28;19917;-55
2024/01/30 11:18:40;;;;;;;;;;;;;;;22.05;34.10;102519.16;5048001;28;20276;-54
2024/01/30 11:21:05;;;;;;;;;;;;;;;22.08;33.97;102508.00;5045571;28;19992;-56
2024/01/30 11:23:32;;;;;;;;;;;;;;;22.08;34.22;102505.28;5047851;28;19913;-54
2024/01/30 11:25:58;;;;;;;;;;;;;;;22.08;33.84;102521.53;5048356;28;19970;-52
2024/01/30 11:28:23;;;;;;;;;;;;;;;22.11;33.81;102516.69;5030906;28;20564;-52
2024/01/30 11:30:50;;;;;;;;;;;;;;;21.77;34.20;102447.88;5044885;28;19917;-52
2024/01/30 11:33:16;;;;;;;;;;;;;;;22.17;33.91;102520.66;5046796;28;19920;-55
2024/01/30 11:35:41;;;;;;;;;;;;;;;22.18;34.00;102515.13;5051582;28;19920;-49
2024/01/30 11:38:07;;;;;;;;;;;;;;;22.20;34.03;102517.66;5053494;28;19913;-53
2024/01/30 11:40:33;;;;;;;;;;;;;;;22.23;33.83;102502.97;5053742;28;20356;-54
2024/01/30 11:42:59;;;;;;;;;;;;;;;22.27;33.83;102507.94;5053511;28;19924;-51
2024/01/30 11:45:24;;;;;;;;;;;;;;;22.33;33.65;102510.03;5045821;28;20225;-52
2024/01/30 11:47:49;;;;;;;;;;;;;;;22.36;33.74;102506.16;5051807;28;20338;-54
2024/01/30 11:50:14;;;;;;;;;;;;;;;22.40;33.87;102515.69;5059970;28;19917;-53
2024/01/30 11:52:40;;;;;;;;;;;;;;;22.44;33.47;102507.09;5051883;28;19917;-51
2024/01/30 11:55:05;;;;;;;;;;;;;;;22.47;33.42;102508.63;5049813;28;19917;-53
2024/01/30 11:57:30;;;;;;;;;;;;;;;22.48;33.44;102513.06;5063940;28;19935;-55
2024/01/30 11:59:55;;;;;;;;;;;;;;;22.50;33.59;102508.34;5073588;28;19912;-53
2024/01/30 12:02:21;;;;;;;;;;;;;;;22.54;33.49;102501.59;5072773;28;19923;-54
2024/01/30 12:04:46;;;;;;;;;;;;;;;22.58;33.71;102510.28;5072657;28;19916;-54
2024/01/30 12:07:12;;;;;;;;;;;;;;;22.61;33.56;102497.28;5060970;28;19913;-53
2024/01/30 12:09:37;;;;;;;;;;;;;;;22.64;33.38;102501.53;5053953;28;20334;-54
2024/01/30 12:12:02;;;;;;;;;;;;;;;22.61;33.59;102508.13;5050860;28;19959;-53
2024/01/30 12:14:28;;;;;;;;;;;;;;;22.61;33.38;102510.00;5073578;28;19969;-52
2024/01/30 12:16:53;;;;;;;;;;;;;;;22.67;33.61;102512.91;5056419;28;20396;-54
2024/01/30 12:19:22;;;;;;;;;;;;;;;22.75;33.56;102503.16;5072008;28;19921;-55
2024/01/30 12:21:47;;;;;;;;;;;;;;;22.81;33.37;102502.53;5074283;28;19943;-54
2024/01/30 12:24:12;;;;;;;;;;;;;;;22.84;33.37;102510.34;5060708;28;19916;-54
2024/01/30 12:26:38;;;;;;;;;;;;;;;22.87;33.39;102502.75;5070394;28;19913;-47